sensor_id;sensor_type;location;lat;lon;timestamp;temperature;humidity
47482;DHT22;33219;47.410;9.730;2022-08-19T00:01:27;16.60;99.90
47482;DHT22;33219;47.410;9.730;2022-08-19T00:03:57;16.60;99.90
47482;DHT22;33219;47.410;9.730;2022-08-19T00:06:25;16.60;99.90
47482;DHT22;33219;47.410;9.730;2022-08-19T00:08:53;16.60;99.90
47482;DHT22;33219;47.410;9.730;2022-08-19T00:11:21;16.60;99.90
47482;DHT22;33219;47.410;9.730;2022-08-19T00:13:49;16.70;99.90
47482;DHT22;33219;47.410;9.730;2022-08-19T00:16:20;16.70;99.90
47482;DHT22;33219;47.410;9.730;2022-08-19T00:18:48;16.70;99.90
47482;DHT22;33219;47.410;9.730;2022-08-19T00:21:16;16.70;99.90
47482;DHT22;33219;47.410;9.730;2022-08-19T00:23:44;16.80;99.90
47482;DHT22;33219;47.410;9.730;2022-08-19T00:26:12;16.80;99.90
47482;DHT22;33219;47.410;9.730;2022-08-19T00:28:40;16.90;99.90
47482;DHT22;33219;47.410;9.730;2022-08-19T00:31:09;16.90;99.90
47482;DHT22;33219;47.410;9.730;2022-08-19T00:33:37;16.90;99.90
47482;DHT22;33219;47.410;9.730;2022-08-19T00:36:06;16.90;99.90
47482;DHT22;33219;47.410;9.730;2022-08-19T00:38:36;16.90;99.90
47482;DHT22;33219;47.410;9.730;2022-08-19T00:41:04;16.90;99.90
47482;DHT22;33219;47.410;9.730;2022-08-19T00:43:33;17.00;99.90
47482;DHT22;33219;47.410;9.730;2022-08-19T00:46:01;17.00;99.90
47482;DHT22;33219;47.410;9.730;2022-08-19T00:48:32;17.00;99.90
47482;DHT22;33219;47.410;9.730;2022-08-19T00:51:00;17.00;99.90
47482;DHT22;33219;47.410;9.730;2022-08-19T00:53:29;17.00;99.90
47482;DHT22;33219;47.410;9.730;2022-08-19T00:56:01;17.00;99.90
47482;DHT22;33219;47.410;9.730;2022-08-19T00:58:32;17.00;99.90
47482;DHT22;33219;47.410;9.730;2022-08-19T01:01:03;17.10;99.90
47482;DHT22;33219;47.410;9.730;2022-08-19T01:03:31;17.10;99.90
47482;DHT22;33219;47.410;9.730;2022-08-19T01:05:58;17.10;99.90
47482;DHT22;33219;47.410;9.730;2022-08-19T01:08:26;17.20;99.90
47482;DHT22;33219;47.410;9.730;2022-08-19T01:10:56;17.20;99.90
47482;DHT22;33219;47.410;9.730;2022-08-19T01:13:27;17.20;99.90
47482;DHT22;33219;47.410;9.730;2022-08-19T01:16:06;17.20;99.90
47482;DHT22;33219;47.410;9.730;2022-08-19T01:18:40;17.20;99.90
47482;DHT22;33219;47.410;9.730;2022-08-19T01:21:12;17.20;99.90
47482;DHT22;33219;47.410;9.730;2022-08-19T01:23:40;17.20;99.90
47482;DHT22;33219;47.410;9.730;2022-08-19T01:26:13;17.20;99.90
47482;DHT22;33219;47.410;9.730;2022-08-19T01:28:43;17.20;99.90
47482;DHT22;33219;47.410;9.730;2022-08-19T01:31:14;17.20;99.90
47482;DHT22;33219;47.410;9.730;2022-08-19T01:33:41;17.20;99.90
47482;DHT22;33219;47.410;9.730;2022-08-19T01:36:12;17.10;99.90
47482;DHT22;33219;47.410;9.730;2022-08-19T01:38:42;17.20;99.90
47482;DHT22;33219;47.410;9.730;2022-08-19T01:41:11;17.20;99.90
47482;DHT22;33219;47.410;9.730;2022-08-19T01:43:39;17.20;99.90
47482;DHT22;33219;47.410;9.730;2022-08-19T01:46:07;17.20;99.90
47482;DHT22;33219;47.410;9.730;2022-08-19T01:48:37;17.20;99.90
47482;DHT22;33219;47.410;9.730;2022-08-19T01:51:07;17.20;99.90
47482;DHT22;33219;47.410;9.730;2022-08-19T01:53:35;17.20;99.90
47482;DHT22;33219;47.410;9.730;2022-08-19T01:56:03;17.20;99.90
47482;DHT22;33219;47.410;9.730;2022-08-19T01:58:34;17.20;99.90
47482;DHT22;33219;47.410;9.730;2022-08-19T02:01:04;17.10;99.90
47482;DHT22;33219;47.410;9.730;2022-08-19T02:03:33;17.00;99.90
47482;DHT22;33219;47.410;9.730;2022-08-19T02:06:03;17.00;99.90
47482;DHT22;33219;47.410;9.730;2022-08-19T02:08:33;16.90;99.90
47482;DHT22;33219;47.410;9.730;2022-08-19T02:11:02;17.00;99.90
47482;DHT22;33219;47.410;9.730;2022-08-19T02:13:31;17.00;99.90
47482;DHT22;33219;47.410;9.730;2022-08-19T02:16:00;17.10;99.90
47482;DHT22;33219;47.410;9.730;2022-08-19T02:18:27;17.10;99.90
47482;DHT22;33219;47.410;9.730;2022-08-19T02:20:55;17.00;99.90
47482;DHT22;33219;47.410;9.730;2022-08-19T02:23:22;17.10;99.90
47482;DHT22;33219;47.410;9.730;2022-08-19T02:25:51;17.10;99.90
47482;DHT22;33219;47.410;9.730;2022-08-19T02:28:19;17.10;99.90
47482;DHT22;33219;47.410;9.730;2022-08-19T02:30:47;17.10;99.90
47482;DHT22;33219;47.410;9.730;2022-08-19T02:33:15;17.10;99.90
47482;DHT22;33219;47.410;9.730;2022-08-19T02:35:45;17.00;99.90
47482;DHT22;33219;47.410;9.730;2022-08-19T02:38:13;17.10;99.90
47482;DHT22;33219;47.410;9.730;2022-08-19T02:40:58;17.00;99.90
47482;DHT22;33219;47.410;9.730;2022-08-19T02:43:28;17.00;99.90
47482;DHT22;33219;47.410;9.730;2022-08-19T02:45:56;17.00;99.90
47482;DHT22;33219;47.410;9.730;2022-08-19T02:48:25;17.00;99.90
47482;DHT22;33219;47.410;9.730;2022-08-19T02:50:53;17.00;99.90
47482;DHT22;33219;47.410;9.730;2022-08-19T02:53:26;17.00;99.90
47482;DHT22;33219;47.410;9.730;2022-08-19T02:55:54;17.00;99.90
47482;DHT22;33219;47.410;9.730;2022-08-19T02:58:22;17.00;99.90
47482;DHT22;33219;47.410;9.730;2022-08-19T03:00:53;16.90;99.90
47482;DHT22;33219;47.410;9.730;2022-08-19T03:03:22;16.90;99.90
47482;DHT22;33219;47.410;9.730;2022-08-19T03:05:49;16.90;99.90
47482;DHT22;33219;47.410;9.730;2022-08-19T03:08:17;16.90;99.90
47482;DHT22;33219;47.410;9.730;2022-08-19T03:10:47;16.90;99.90
47482;DHT22;33219;47.410;9.730;2022-08-19T03:13:17;16.90;99.90
47482;DHT22;33219;47.410;9.730;2022-08-19T03:15:47;16.90;99.90
47482;DHT22;33219;47.410;9.730;2022-08-19T03:18:15;17.00;99.90
47482;DHT22;33219;47.410;9.730;2022-08-19T03:20:45;16.90;99.90
47482;DHT22;33219;47.410;9.730;2022-08-19T03:23:14;16.90;99.90
47482;DHT22;33219;47.410;9.730;2022-08-19T03:25:48;17.00;99.90
47482;DHT22;33219;47.410;9.730;2022-08-19T03:28:13;16.90;99.90
47482;DHT22;33219;47.410;9.730;2022-08-19T03:30:43;16.90;99.90
47482;DHT22;33219;47.410;9.730;2022-08-19T03:33:11;16.90;99.90
47482;DHT22;33219;47.410;9.730;2022-08-19T03:35:39;16.90;99.90
47482;DHT22;33219;47.410;9.730;2022-08-19T03:38:06;16.90;99.90
47482;DHT22;33219;47.410;9.730;2022-08-19T03:40:38;16.90;99.90
47482;DHT22;33219;47.410;9.730;2022-08-19T03:43:06;16.90;99.90
47482;DHT22;33219;47.410;9.730;2022-08-19T03:45:33;17.00;99.90
47482;DHT22;33219;47.410;9.730;2022-08-19T03:48:01;17.00;99.90
47482;DHT22;33219;47.410;9.730;2022-08-19T03:50:28;17.00;99.90
47482;DHT22;33219;47.410;9.730;2022-08-19T03:52:56;16.80;99.90
47482;DHT22;33219;47.410;9.730;2022-08-19T03:55:23;16.80;99.90
47482;DHT22;33219;47.410;9.730;2022-08-19T03:57:51;16.80;99.90
47482;DHT22;33219;47.410;9.730;2022-08-19T04:00:18;16.90;99.90
47482;DHT22;33219;47.410;9.730;2022-08-19T04:02:46;16.90;99.90
47482;DHT22;33219;47.410;9.730;2022-08-19T04:05:13;16.90;99.90
47482;DHT22;33219;47.410;9.730;2022-08-19T04:07:42;16.90;99.90
47482;DHT22;33219;47.410;9.730;2022-08-19T04:10:09;16.90;99.90
47482;DHT22;33219;47.410;9.730;2022-08-19T04:12:37;16.90;99.90
47482;DHT22;33219;47.410;9.730;2022-08-19T04:15:06;16.90;99.90
47482;DHT22;33219;47.410;9.730;2022-08-19T04:17:34;16.90;99.90
47482;DHT22;33219;47.410;9.730;2022-08-19T04:20:02;16.90;99.90
47482;DHT22;33219;47.410;9.730;2022-08-19T04:22:30;17.00;99.90
47482;DHT22;33219;47.410;9.730;2022-08-19T04:24:57;17.00;99.90
47482;DHT22;33219;47.410;9.730;2022-08-19T04:27:25;16.90;99.90
47482;DHT22;33219;47.410;9.730;2022-08-19T04:29:52;16.90;99.90
47482;DHT22;33219;47.410;9.730;2022-08-19T04:32:21;16.90;99.90
47482;DHT22;33219;47.410;9.730;2022-08-19T04:34:49;16.90;99.90
47482;DHT22;33219;47.410;9.730;2022-08-19T04:37:16;16.80;99.90
47482;DHT22;33219;47.410;9.730;2022-08-19T04:39:44;16.90;99.90
47482;DHT22;33219;47.410;9.730;2022-08-19T04:42:29;16.80;99.90
47482;DHT22;33219;47.410;9.730;2022-08-19T04:45:12;16.80;99.90
47482;DHT22;33219;47.410;9.730;2022-08-19T04:47:40;16.80;99.90
47482;DHT22;33219;47.410;9.730;2022-08-19T04:50:08;16.80;99.90
47482;DHT22;33219;47.410;9.730;2022-08-19T04:52:40;16.80;99.90
47482;DHT22;33219;47.410;9.730;2022-08-19T04:55:10;16.70;99.90
47482;DHT22;33219;47.410;9.730;2022-08-19T04:57:38;16.70;99.90
47482;DHT22;33219;47.410;9.730;2022-08-19T05:00:08;16.70;99.90
47482;DHT22;33219;47.410;9.730;2022-08-19T05:02:35;16.80;99.90
47482;DHT22;33219;47.410;9.730;2022-08-19T05:05:03;16.70;99.90
47482;DHT22;33219;47.410;9.730;2022-08-19T05:07:33;16.70;99.90
47482;DHT22;33219;47.410;9.730;2022-08-19T05:10:01;16.70;99.90
47482;DHT22;33219;47.410;9.730;2022-08-19T05:12:29;16.80;99.90
47482;DHT22;33219;47.410;9.730;2022-08-19T05:14:57;16.70;99.90
47482;DHT22;33219;47.410;9.730;2022-08-19T05:17:26;16.80;99.90
47482;DHT22;33219;47.410;9.730;2022-08-19T05:19:54;16.70;99.90
47482;DHT22;33219;47.410;9.730;2022-08-19T05:22:41;16.70;99.90
47482;DHT22;33219;47.410;9.730;2022-08-19T05:25:12;16.70;99.90
47482;DHT22;33219;47.410;9.730;2022-08-19T05:27:41;16.80;99.90
47482;DHT22;33219;47.410;9.730;2022-08-19T05:30:10;16.80;99.90
47482;DHT22;33219;47.410;9.730;2022-08-19T05:32:39;16.80;99.90
47482;DHT22;33219;47.410;9.730;2022-08-19T05:35:07;16.80;99.90
47482;DHT22;33219;47.410;9.730;2022-08-19T05:37:36;16.90;99.90
47482;DHT22;33219;47.410;9.730;2022-08-19T05:40:05;16.90;99.90
47482;DHT22;33219;47.410;9.730;2022-08-19T05:42:33;16.90;99.90
47482;DHT22;33219;47.410;9.730;2022-08-19T05:45:01;16.90;99.90
47482;DHT22;33219;47.410;9.730;2022-08-19T05:47:30;16.90;99.90
47482;DHT22;33219;47.410;9.730;2022-08-19T05:49:58;17.00;99.90
47482;DHT22;33219;47.410;9.730;2022-08-19T05:52:27;17.00;99.90
47482;DHT22;33219;47.410;9.730;2022-08-19T05:54:55;17.00;99.90
47482;DHT22;33219;47.410;9.730;2022-08-19T05:57:24;17.00;99.90
47482;DHT22;33219;47.410;9.730;2022-08-19T05:59:52;17.00;99.90
47482;DHT22;33219;47.410;9.730;2022-08-19T06:02:20;17.00;99.90
47482;DHT22;33219;47.410;9.730;2022-08-19T06:04:48;17.00;99.90
47482;DHT22;33219;47.410;9.730;2022-08-19T06:07:15;17.00;99.90
47482;DHT22;33219;47.410;9.730;2022-08-19T06:09:43;17.00;99.90
47482;DHT22;33219;47.410;9.730;2022-08-19T06:12:11;17.00;99.90
47482;DHT22;33219;47.410;9.730;2022-08-19T06:14:39;17.00;99.90
47482;DHT22;33219;47.410;9.730;2022-08-19T06:17:08;17.00;99.90
47482;DHT22;33219;47.410;9.730;2022-08-19T06:19:35;17.00;99.90
47482;DHT22;33219;47.410;9.730;2022-08-19T06:22:04;17.00;99.90
47482;DHT22;33219;47.410;9.730;2022-08-19T06:24:32;17.10;99.90
47482;DHT22;33219;47.410;9.730;2022-08-19T06:27:03;17.10;99.90
47482;DHT22;33219;47.410;9.730;2022-08-19T06:29:32;17.10;99.90
47482;DHT22;33219;47.410;9.730;2022-08-19T06:32:01;17.10;99.90
47482;DHT22;33219;47.410;9.730;2022-08-19T06:34:32;17.00;99.90
47482;DHT22;33219;47.410;9.730;2022-08-19T06:37:01;17.00;99.90
47482;DHT22;33219;47.410;9.730;2022-08-19T06:39:32;16.90;99.90
47482;DHT22;33219;47.410;9.730;2022-08-19T06:47:38;16.90;99.90
47482;DHT22;33219;47.410;9.730;2022-08-19T06:50:06;16.90;99.90
47482;DHT22;33219;47.410;9.730;2022-08-19T06:52:35;16.90;99.90
47482;DHT22;33219;47.410;9.730;2022-08-19T06:55:03;16.90;99.90
47482;DHT22;33219;47.410;9.730;2022-08-19T06:57:31;16.90;99.90
47482;DHT22;33219;47.410;9.730;2022-08-19T06:59:59;16.90;99.90
47482;DHT22;33219;47.410;9.730;2022-08-19T07:02:26;16.80;99.90
47482;DHT22;33219;47.410;9.730;2022-08-19T07:04:54;16.80;99.90
47482;DHT22;33219;47.410;9.730;2022-08-19T07:07:23;16.80;99.90
47482;DHT22;33219;47.410;9.730;2022-08-19T07:15:45;16.70;99.90
47482;DHT22;33219;47.410;9.730;2022-08-19T07:18:13;16.80;99.90
47482;DHT22;33219;47.410;9.730;2022-08-19T07:20:41;16.70;99.90
47482;DHT22;33219;47.410;9.730;2022-08-19T07:31:38;16.60;99.90
47482;DHT22;33219;47.410;9.730;2022-08-19T07:34:08;16.50;99.90
47482;DHT22;33219;47.410;9.730;2022-08-19T07:36:39;16.50;99.90
47482;DHT22;33219;47.410;9.730;2022-08-19T07:39:15;16.50;99.90
47482;DHT22;33219;47.410;9.730;2022-08-19T07:46:56;16.40;99.90
47482;DHT22;33219;47.410;9.730;2022-08-19T07:49:25;16.40;99.90
47482;DHT22;33219;47.410;9.730;2022-08-19T07:51:56;16.40;99.90
47482;DHT22;33219;47.410;9.730;2022-08-19T07:54:26;16.40;99.90
47482;DHT22;33219;47.410;9.730;2022-08-19T07:59:30;16.40;99.90
47482;DHT22;33219;47.410;9.730;2022-08-19T08:01:58;16.40;99.90
47482;DHT22;33219;47.410;9.730;2022-08-19T08:34:07;16.60;99.90
47482;DHT22;33219;47.410;9.730;2022-08-19T08:36:44;16.60;99.90
47482;DHT22;33219;47.410;9.730;2022-08-19T08:39:18;16.60;99.90
47482;DHT22;33219;47.410;9.730;2022-08-19T08:41:58;16.60;99.90
47482;DHT22;33219;47.410;9.730;2022-08-19T08:47:09;16.60;99.90
47482;DHT22;33219;47.410;9.730;2022-08-19T08:52:24;16.60;99.90
47482;DHT22;33219;47.410;9.730;2022-08-19T08:54:55;16.60;99.90
47482;DHT22;33219;47.410;9.730;2022-08-19T08:57:48;16.60;99.90
47482;DHT22;33219;47.410;9.730;2022-08-19T09:00:18;16.70;99.90
47482;DHT22;33219;47.410;9.730;2022-08-19T09:02:47;16.70;99.90
47482;DHT22;33219;47.410;9.730;2022-08-19T09:05:15;16.80;99.90
47482;DHT22;33219;47.410;9.730;2022-08-19T09:08:03;16.90;99.90
47482;DHT22;33219;47.410;9.730;2022-08-19T09:10:32;16.90;99.90
47482;DHT22;33219;47.410;9.730;2022-08-19T09:13:11;16.80;99.90
47482;DHT22;33219;47.410;9.730;2022-08-19T09:15:44;16.70;99.90
47482;DHT22;33219;47.410;9.730;2022-08-19T09:18:08;16.70;99.90
47482;DHT22;33219;47.410;9.730;2022-08-19T09:20:36;16.80;99.90
47482;DHT22;33219;47.410;9.730;2022-08-19T09:23:04;16.80;99.90
47482;DHT22;33219;47.410;9.730;2022-08-19T09:25:31;16.80;99.90
47482;DHT22;33219;47.410;9.730;2022-08-19T09:28:01;16.90;99.90
47482;DHT22;33219;47.410;9.730;2022-08-19T09:30:36;16.90;99.90
47482;DHT22;33219;47.410;9.730;2022-08-19T09:33:03;16.90;99.90
47482;DHT22;33219;47.410;9.730;2022-08-19T09:35:31;16.90;99.90
47482;DHT22;33219;47.410;9.730;2022-08-19T09:37:59;16.90;99.90
47482;DHT22;33219;47.410;9.730;2022-08-19T09:40:30;16.90;99.90
47482;DHT22;33219;47.410;9.730;2022-08-19T09:42:59;16.90;99.90
47482;DHT22;33219;47.410;9.730;2022-08-19T09:45:28;16.90;99.90
47482;DHT22;33219;47.410;9.730;2022-08-19T09:47:56;17.00;99.90
47482;DHT22;33219;47.410;9.730;2022-08-19T09:50:24;16.90;99.90
47482;DHT22;33219;47.410;9.730;2022-08-19T09:52:52;16.90;99.90
47482;DHT22;33219;47.410;9.730;2022-08-19T09:55:20;16.90;99.90
47482;DHT22;33219;47.410;9.730;2022-08-19T10:17:36;17.00;99.90
47482;DHT22;33219;47.410;9.730;2022-08-19T10:20:05;17.10;99.90
47482;DHT22;33219;47.410;9.730;2022-08-19T10:22:33;17.10;99.90
47482;DHT22;33219;47.410;9.730;2022-08-19T10:25:02;17.10;99.90
47482;DHT22;33219;47.410;9.730;2022-08-19T10:27:29;17.10;99.90
47482;DHT22;33219;47.410;9.730;2022-08-19T10:29:57;17.20;99.90
47482;DHT22;33219;47.410;9.730;2022-08-19T10:32:25;17.20;99.90
47482;DHT22;33219;47.410;9.730;2022-08-19T10:34:54;17.30;99.90
47482;DHT22;33219;47.410;9.730;2022-08-19T10:37:22;17.10;99.90
47482;DHT22;33219;47.410;9.730;2022-08-19T10:39:54;17.00;99.90
47482;DHT22;33219;47.410;9.730;2022-08-19T10:42:21;17.00;99.90
47482;DHT22;33219;47.410;9.730;2022-08-19T10:44:49;17.10;99.90
47482;DHT22;33219;47.410;9.730;2022-08-19T10:47:17;17.10;99.90
47482;DHT22;33219;47.410;9.730;2022-08-19T10:49:44;17.00;99.90
47482;DHT22;33219;47.410;9.730;2022-08-19T10:52:30;17.00;99.90
47482;DHT22;33219;47.410;9.730;2022-08-19T10:55:03;17.00;99.90
47482;DHT22;33219;47.410;9.730;2022-08-19T10:57:48;16.90;99.90
47482;DHT22;33219;47.410;9.730;2022-08-19T11:00:17;16.80;99.90
47482;DHT22;33219;47.410;9.730;2022-08-19T11:02:44;16.80;99.90
47482;DHT22;33219;47.410;9.730;2022-08-19T11:05:13;16.80;99.90
47482;DHT22;33219;47.410;9.730;2022-08-19T11:07:41;16.80;99.90
47482;DHT22;33219;47.410;9.730;2022-08-19T11:10:12;16.80;99.90
47482;DHT22;33219;47.410;9.730;2022-08-19T11:12:40;16.70;99.90
47482;DHT22;33219;47.410;9.730;2022-08-19T11:15:09;16.60;99.90
47482;DHT22;33219;47.410;9.730;2022-08-19T11:17:40;16.50;99.90
47482;DHT22;33219;47.410;9.730;2022-08-19T11:20:11;16.50;99.90
47482;DHT22;33219;47.410;9.730;2022-08-19T11:22:40;16.40;99.90
47482;DHT22;33219;47.410;9.730;2022-08-19T11:25:09;16.40;99.90
47482;DHT22;33219;47.410;9.730;2022-08-19T11:27:41;16.40;99.90
47482;DHT22;33219;47.410;9.730;2022-08-19T11:30:11;16.40;99.90
47482;DHT22;33219;47.410;9.730;2022-08-19T11:32:39;16.40;99.90
47482;DHT22;33219;47.410;9.730;2022-08-19T11:35:07;16.30;99.90
47482;DHT22;33219;47.410;9.730;2022-08-19T11:37:35;16.30;99.90
47482;DHT22;33219;47.410;9.730;2022-08-19T11:40:05;16.30;99.90
47482;DHT22;33219;47.410;9.730;2022-08-19T11:42:33;16.30;99.90
47482;DHT22;33219;47.410;9.730;2022-08-19T11:45:19;16.20;99.90
47482;DHT22;33219;47.410;9.730;2022-08-19T11:47:47;16.20;99.90
47482;DHT22;33219;47.410;9.730;2022-08-19T11:50:16;16.20;99.90
47482;DHT22;33219;47.410;9.730;2022-08-19T11:52:44;16.20;99.90
47482;DHT22;33219;47.410;9.730;2022-08-19T11:55:14;16.10;99.90
47482;DHT22;33219;47.410;9.730;2022-08-19T11:57:42;16.00;99.90
47482;DHT22;33219;47.410;9.730;2022-08-19T12:00:10;16.00;99.90
47482;DHT22;33219;47.410;9.730;2022-08-19T12:02:40;16.00;99.90
47482;DHT22;33219;47.410;9.730;2022-08-19T12:05:08;16.00;99.90
47482;DHT22;33219;47.410;9.730;2022-08-19T12:07:36;15.90;99.90
47482;DHT22;33219;47.410;9.730;2022-08-19T12:10:04;15.90;99.90
47482;DHT22;33219;47.410;9.730;2022-08-19T12:12:32;15.90;99.90
47482;DHT22;33219;47.410;9.730;2022-08-19T12:14:59;15.90;99.90
47482;DHT22;33219;47.410;9.730;2022-08-19T12:17:27;15.90;99.90
47482;DHT22;33219;47.410;9.730;2022-08-19T12:19:55;15.80;99.90
47482;DHT22;33219;47.410;9.730;2022-08-19T12:22:22;15.90;99.90
47482;DHT22;33219;47.410;9.730;2022-08-19T12:24:50;15.90;99.90
47482;DHT22;33219;47.410;9.730;2022-08-19T12:27:19;15.90;99.90
47482;DHT22;33219;47.410;9.730;2022-08-19T12:29:47;15.90;99.90
47482;DHT22;33219;47.410;9.730;2022-08-19T12:32:15;15.90;99.90
47482;DHT22;33219;47.410;9.730;2022-08-19T12:34:43;15.90;99.90
47482;DHT22;33219;47.410;9.730;2022-08-19T12:37:12;16.00;99.90
47482;DHT22;33219;47.410;9.730;2022-08-19T12:39:42;16.00;99.90
47482;DHT22;33219;47.410;9.730;2022-08-19T12:42:10;16.00;99.90
47482;DHT22;33219;47.410;9.730;2022-08-19T12:44:40;16.00;99.90
47482;DHT22;33219;47.410;9.730;2022-08-19T12:47:09;16.00;99.90
47482;DHT22;33219;47.410;9.730;2022-08-19T12:49:38;16.10;99.90
47482;DHT22;33219;47.410;9.730;2022-08-19T12:52:07;16.10;99.90
47482;DHT22;33219;47.410;9.730;2022-08-19T12:54:37;16.10;99.90
47482;DHT22;33219;47.410;9.730;2022-08-19T12:57:08;16.10;99.90
47482;DHT22;33219;47.410;9.730;2022-08-19T12:59:38;16.10;99.90
47482;DHT22;33219;47.410;9.730;2022-08-19T13:02:06;16.00;99.90
47482;DHT22;33219;47.410;9.730;2022-08-19T13:04:35;16.00;99.90
47482;DHT22;33219;47.410;9.730;2022-08-19T13:07:04;16.00;99.90
47482;DHT22;33219;47.410;9.730;2022-08-19T13:09:31;16.00;99.90
47482;DHT22;33219;47.410;9.730;2022-08-19T13:11:59;16.00;99.90
47482;DHT22;33219;47.410;9.730;2022-08-19T13:14:28;16.00;99.90
47482;DHT22;33219;47.410;9.730;2022-08-19T13:16:57;16.00;99.90
47482;DHT22;33219;47.410;9.730;2022-08-19T13:19:25;15.90;99.90
47482;DHT22;33219;47.410;9.730;2022-08-19T13:21:52;15.90;99.90
47482;DHT22;33219;47.410;9.730;2022-08-19T13:24:22;15.90;99.90
47482;DHT22;33219;47.410;9.730;2022-08-19T13:26:49;16.00;99.90
47482;DHT22;33219;47.410;9.730;2022-08-19T13:29:17;16.00;99.90
47482;DHT22;33219;47.410;9.730;2022-08-19T13:32:02;15.90;99.90
47482;DHT22;33219;47.410;9.730;2022-08-19T13:34:48;15.90;99.90
47482;DHT22;33219;47.410;9.730;2022-08-19T13:37:16;15.90;99.90
47482;DHT22;33219;47.410;9.730;2022-08-19T13:39:45;15.90;99.90
47482;DHT22;33219;47.410;9.730;2022-08-19T13:42:13;15.90;99.90
47482;DHT22;33219;47.410;9.730;2022-08-19T13:44:41;16.00;99.90
47482;DHT22;33219;47.410;9.730;2022-08-19T13:47:08;15.90;99.90
47482;DHT22;33219;47.410;9.730;2022-08-19T13:49:37;15.90;99.90
47482;DHT22;33219;47.410;9.730;2022-08-19T13:52:05;15.90;99.90
47482;DHT22;33219;47.410;9.730;2022-08-19T13:54:33;15.90;99.90
47482;DHT22;33219;47.410;9.730;2022-08-19T13:57:01;15.90;99.90
47482;DHT22;33219;47.410;9.730;2022-08-19T13:59:28;15.80;99.90
47482;DHT22;33219;47.410;9.730;2022-08-19T14:01:59;15.80;99.90
47482;DHT22;33219;47.410;9.730;2022-08-19T14:04:27;15.80;99.90
47482;DHT22;33219;47.410;9.730;2022-08-19T14:06:55;15.80;99.90
47482;DHT22;33219;47.410;9.730;2022-08-19T14:09:23;15.80;99.90
47482;DHT22;33219;47.410;9.730;2022-08-19T14:11:50;15.90;99.90
47482;DHT22;33219;47.410;9.730;2022-08-19T14:14:18;15.80;99.90
47482;DHT22;33219;47.410;9.730;2022-08-19T14:16:45;15.90;99.90
47482;DHT22;33219;47.410;9.730;2022-08-19T14:19:13;15.90;99.90
47482;DHT22;33219;47.410;9.730;2022-08-19T14:21:41;15.90;99.90
47482;DHT22;33219;47.410;9.730;2022-08-19T14:24:09;15.90;99.90
47482;DHT22;33219;47.410;9.730;2022-08-19T14:26:36;15.90;99.90
47482;DHT22;33219;47.410;9.730;2022-08-19T14:29:04;15.80;99.90
47482;DHT22;33219;47.410;9.730;2022-08-19T14:31:32;15.80;99.90
47482;DHT22;33219;47.410;9.730;2022-08-19T14:33:59;15.80;99.90
47482;DHT22;33219;47.410;9.730;2022-08-19T14:36:27;15.90;99.90
47482;DHT22;33219;47.410;9.730;2022-08-19T14:38:55;15.90;99.90
47482;DHT22;33219;47.410;9.730;2022-08-19T14:41:24;15.90;99.90
47482;DHT22;33219;47.410;9.730;2022-08-19T14:43:53;15.90;99.90
47482;DHT22;33219;47.410;9.730;2022-08-19T14:46:24;16.00;99.90
47482;DHT22;33219;47.410;9.730;2022-08-19T14:48:52;15.90;99.90
47482;DHT22;33219;47.410;9.730;2022-08-19T14:51:21;15.90;99.90
47482;DHT22;33219;47.410;9.730;2022-08-19T14:53:50;15.90;99.90
47482;DHT22;33219;47.410;9.730;2022-08-19T14:56:21;15.80;99.90
47482;DHT22;33219;47.410;9.730;2022-08-19T14:58:49;15.90;99.90
47482;DHT22;33219;47.410;9.730;2022-08-19T15:01:21;15.90;99.90
47482;DHT22;33219;47.410;9.730;2022-08-19T15:03:50;15.90;99.90
47482;DHT22;33219;47.410;9.730;2022-08-19T15:06:20;15.90;99.90
47482;DHT22;33219;47.410;9.730;2022-08-19T15:08:48;15.90;99.90
47482;DHT22;33219;47.410;9.730;2022-08-19T15:11:19;16.00;99.90
47482;DHT22;33219;47.410;9.730;2022-08-19T15:13:49;16.00;99.90
47482;DHT22;33219;47.410;9.730;2022-08-19T15:16:18;15.90;99.90
47482;DHT22;33219;47.410;9.730;2022-08-19T15:18:49;15.90;99.90
47482;DHT22;33219;47.410;9.730;2022-08-19T15:21:17;15.90;99.90
47482;DHT22;33219;47.410;9.730;2022-08-19T15:23:46;15.90;99.90
47482;DHT22;33219;47.410;9.730;2022-08-19T15:26:17;15.90;99.90
47482;DHT22;33219;47.410;9.730;2022-08-19T15:28:45;15.90;99.90
47482;DHT22;33219;47.410;9.730;2022-08-19T15:31:15;15.90;99.90
47482;DHT22;33219;47.410;9.730;2022-08-19T15:33:42;16.00;99.90
47482;DHT22;33219;47.410;9.730;2022-08-19T15:36:10;15.90;99.90
47482;DHT22;33219;47.410;9.730;2022-08-19T15:38:41;15.90;99.90
47482;DHT22;33219;47.410;9.730;2022-08-19T15:41:21;15.90;99.90
47482;DHT22;33219;47.410;9.730;2022-08-19T15:43:58;15.90;99.90
47482;DHT22;33219;47.410;9.730;2022-08-19T15:46:28;16.00;99.90
47482;DHT22;33219;47.410;9.730;2022-08-19T15:48:57;16.00;99.90
47482;DHT22;33219;47.410;9.730;2022-08-19T15:51:27;16.00;99.90
47482;DHT22;33219;47.410;9.730;2022-08-19T15:53:58;16.10;99.90
47482;DHT22;33219;47.410;9.730;2022-08-19T15:56:25;16.10;99.90
47482;DHT22;33219;47.410;9.730;2022-08-19T15:58:54;16.10;99.90
47482;DHT22;33219;47.410;9.730;2022-08-19T16:01:40;16.10;99.90
47482;DHT22;33219;47.410;9.730;2022-08-19T16:04:26;16.00;99.90
47482;DHT22;33219;47.410;9.730;2022-08-19T16:07:11;16.10;99.90
47482;DHT22;33219;47.410;9.730;2022-08-19T16:09:39;16.10;99.90
47482;DHT22;33219;47.410;9.730;2022-08-19T16:12:06;16.10;99.90
47482;DHT22;33219;47.410;9.730;2022-08-19T16:14:35;16.10;99.90
47482;DHT22;33219;47.410;9.730;2022-08-19T16:17:03;16.10;99.90
47482;DHT22;33219;47.410;9.730;2022-08-19T16:19:31;16.10;99.90
47482;DHT22;33219;47.410;9.730;2022-08-19T16:21:59;16.10;99.90
47482;DHT22;33219;47.410;9.730;2022-08-19T16:24:27;16.10;99.90
47482;DHT22;33219;47.410;9.730;2022-08-19T16:26:55;16.10;99.90
47482;DHT22;33219;47.410;9.730;2022-08-19T16:29:23;16.10;99.90
47482;DHT22;33219;47.410;9.730;2022-08-19T16:31:50;16.10;99.90
47482;DHT22;33219;47.410;9.730;2022-08-19T16:34:20;16.20;99.90
47482;DHT22;33219;47.410;9.730;2022-08-19T16:36:48;16.20;99.90
47482;DHT22;33219;47.410;9.730;2022-08-19T16:39:16;16.20;99.90
47482;DHT22;33219;47.410;9.730;2022-08-19T16:41:45;16.20;99.90
47482;DHT22;33219;47.410;9.730;2022-08-19T16:44:13;16.20;99.90
47482;DHT22;33219;47.410;9.730;2022-08-19T16:46:42;16.30;99.90
47482;DHT22;33219;47.410;9.730;2022-08-19T16:49:12;16.30;99.90
47482;DHT22;33219;47.410;9.730;2022-08-19T16:51:40;16.40;99.90
47482;DHT22;33219;47.410;9.730;2022-08-19T16:54:09;16.40;99.90
47482;DHT22;33219;47.410;9.730;2022-08-19T16:56:36;16.50;99.90
47482;DHT22;33219;47.410;9.730;2022-08-19T16:59:04;16.40;99.90
47482;DHT22;33219;47.410;9.730;2022-08-19T17:01:32;16.50;99.90
47482;DHT22;33219;47.410;9.730;2022-08-19T17:03:59;16.40;99.90
47482;DHT22;33219;47.410;9.730;2022-08-19T17:06:28;16.40;99.90